createdAt,value
2018-09-03T00:01:39.490Z,16.80
2018-09-03T00:06:34.036Z,16.80
2018-09-03T00:11:28.477Z,16.90
2018-09-03T00:16:23.057Z,16.80
2018-09-03T00:21:17.521Z,16.80
2018-09-03T00:26:12.241Z,16.80
2018-09-03T00:31:12.292Z,16.80
2018-09-03T00:36:13.322Z,16.80
2018-09-03T00:41:12.976Z,16.80
2018-09-03T00:46:12.541Z,16.80
2018-09-03T00:51:07.757Z,16.90
2018-09-03T00:56:03.728Z,16.80
2018-09-03T01:00:58.131Z,16.80
2018-09-03T01:05:52.722Z,16.90
2018-09-03T01:10:47.081Z,16.90
2018-09-03T01:15:42.091Z,17.00
2018-09-03T01:20:36.494Z,17.10
2018-09-03T01:25:30.964Z,17.10
2018-09-03T01:30:25.384Z,17.10
2018-09-03T01:35:20.113Z,17.20
2018-09-03T01:40:14.786Z,17.20
2018-09-03T01:45:09.600Z,17.30
2018-09-03T01:50:04.563Z,17.30
2018-09-03T01:55:06.764Z,17.20
2018-09-03T02:00:01.666Z,17.30
2018-09-03T02:04:56.533Z,17.30
2018-09-03T02:09:50.874Z,17.30
2018-09-03T02:14:45.427Z,17.30
2018-09-03T02:19:40.064Z,17.30
2018-09-03T02:24:34.388Z,17.30
2018-09-03T02:29:29.484Z,17.20
2018-09-03T02:34:23.696Z,17.20
2018-09-03T02:39:18.908Z,17.30
2018-09-03T02:44:13.965Z,17.30
2018-09-03T02:49:08.688Z,17.40
2018-09-03T02:54:04.146Z,17.30
2018-09-03T02:58:58.854Z,17.30
2018-09-03T03:03:54.677Z,17.40
2018-09-03T03:08:49.468Z,17.40
2018-09-03T03:13:44.517Z,17.40
2018-09-03T03:18:39.078Z,17.40
2018-09-03T03:23:33.364Z,17.40
2018-09-03T03:33:29.094Z,17.50
2018-09-03T03:38:23.698Z,17.50
2018-09-03T03:43:18.752Z,17.50
2018-09-03T03:48:13.880Z,17.50
2018-09-03T03:53:08.745Z,17.50
2018-09-03T03:58:03.206Z,17.50
2018-09-03T04:02:57.534Z,17.50
2018-09-03T04:07:51.975Z,17.50
2018-09-03T04:12:51.629Z,17.50
2018-09-03T04:17:45.915Z,17.50
2018-09-03T04:22:48.542Z,17.50
2018-09-03T04:27:43.415Z,17.60
2018-09-03T04:32:38.882Z,17.60
2018-09-03T04:37:33.779Z,17.60
2018-09-03T04:42:28.154Z,17.60
2018-09-03T04:47:23.476Z,17.60
2018-09-03T04:52:18.481Z,17.60
2018-09-03T04:57:13.120Z,17.70
2018-09-03T05:02:09.492Z,17.70
2018-09-03T05:07:06.343Z,17.70
2018-09-03T05:12:00.900Z,17.60
2018-09-03T05:16:55.926Z,17.60
2018-09-03T05:21:50.974Z,17.60
2018-09-03T05:26:46.163Z,17.60
2018-09-03T05:31:42.611Z,17.70
2018-09-03T05:36:37.493Z,17.70
2018-09-03T05:41:33.266Z,17.90
2018-09-03T05:46:28.257Z,18.00
2018-09-03T05:51:24.703Z,17.90
2018-09-03T05:56:19.527Z,17.60
2018-09-03T06:01:14.997Z,17.80
2018-09-03T06:06:09.382Z,17.80
2018-09-03T06:11:05.401Z,17.80
2018-09-03T06:16:00.496Z,17.80
2018-09-03T06:20:55.151Z,17.80
2018-09-03T06:25:50.063Z,17.90
2018-09-03T06:30:45.039Z,18.20
2018-09-03T06:35:39.691Z,18.00
2018-09-03T06:40:34.791Z,17.90
2018-09-03T06:45:30.416Z,18.10
2018-09-03T06:50:26.955Z,18.40
2018-09-03T06:55:24.613Z,18.60
2018-09-03T07:00:20.391Z,18.60
2018-09-03T07:05:15.871Z,18.70
2018-09-03T07:10:10.712Z,19.00
2018-09-03T07:15:06.471Z,19.20
2018-09-03T07:20:01.045Z,19.60
2018-09-03T07:25:07.754Z,19.40
2018-09-03T07:30:03.962Z,19.50
2018-09-03T07:34:58.839Z,19.60
2018-09-03T07:39:54.829Z,19.80
2018-09-03T07:44:49.494Z,19.70
2018-09-03T07:49:44.616Z,20.10
2018-09-03T07:54:39.305Z,20.20
2018-09-03T07:59:35.484Z,20.60
2018-09-03T08:04:30.356Z,21.00
2018-09-03T08:09:32.177Z,22.20
2018-09-03T08:14:27.031Z,23.30
2018-09-03T08:19:21.601Z,24.50
2018-09-03T08:24:16.571Z,26.90
2018-09-03T08:29:10.924Z,28.80
2018-09-03T08:34:06.599Z,31.00
2018-09-03T08:39:00.931Z,32.30
2018-09-03T08:43:55.431Z,32.50
2018-09-03T08:48:51.750Z,32.70
2018-09-03T08:53:47.493Z,31.70
2018-09-03T08:58:43.493Z,30.70
2018-09-03T09:03:42.739Z,32.50
2018-09-03T09:08:38.586Z,31.50
2018-09-03T09:13:33.673Z,32.60
2018-09-03T09:18:29.226Z,32.30
2018-09-03T09:23:24.253Z,31.10
2018-09-03T09:28:18.721Z,31.10
2018-09-03T09:33:13.528Z,32.10
2018-09-03T09:38:08.289Z,33.00
2018-09-03T09:43:03.457Z,32.20
2018-09-03T09:47:57.921Z,30.90
2018-09-03T09:52:53.487Z,30.20
2018-09-03T09:57:47.974Z,31.50
2018-09-03T10:02:45.121Z,32.40
2018-09-03T10:07:39.759Z,32.40
2018-09-03T10:12:35.218Z,31.10
2018-09-03T10:17:30.676Z,29.90
2018-09-03T10:22:25.339Z,28.40
2018-09-03T10:27:19.920Z,28.20
2018-09-03T10:32:14.844Z,28.20
2018-09-03T10:37:09.603Z,27.30
2018-09-03T10:42:08.029Z,27.30
2018-09-03T10:47:03.936Z,27.50
2018-09-03T10:51:58.998Z,27.50
2018-09-03T10:56:53.820Z,26.90
2018-09-03T11:01:49.212Z,27.90
2018-09-03T11:06:45.567Z,27.60
2018-09-03T11:11:41.738Z,26.90
2018-09-03T11:16:37.322Z,26.30
2018-09-03T11:21:33.082Z,26.30
2018-09-03T11:26:28.053Z,26.30
2018-09-03T11:31:22.324Z,26.30
2018-09-03T11:36:17.165Z,25.80
2018-09-03T11:41:12.169Z,25.50
2018-09-03T11:46:08.017Z,25.50
2018-09-03T11:51:03.209Z,25.80
2018-09-03T11:55:57.589Z,26.00
2018-09-03T12:00:57.111Z,26.20
2018-09-03T12:05:52.364Z,25.80
2018-09-03T12:10:47.260Z,25.50
2018-09-03T12:15:45.988Z,25.30
2018-09-03T12:20:42.077Z,25.10
2018-09-03T12:25:36.536Z,25.00
2018-09-03T12:30:33.802Z,24.70
2018-09-03T12:35:33.541Z,24.40
2018-09-03T12:40:28.009Z,24.30
2018-09-03T12:45:28.111Z,24.10
2018-09-03T12:50:23.581Z,24.00
2018-09-03T12:55:19.404Z,23.80
2018-09-03T13:00:21.194Z,23.50
2018-09-03T13:05:18.296Z,23.60
2018-09-03T13:10:13.477Z,23.60
2018-09-03T13:15:08.597Z,24.00
2018-09-03T13:20:05.988Z,24.40
2018-09-03T13:25:00.989Z,24.80
2018-09-03T13:29:55.441Z,25.00
2018-09-03T13:34:50.796Z,25.40
2018-09-03T13:39:57.804Z,24.90
2018-09-03T13:44:53.494Z,25.20
2018-09-03T13:49:47.755Z,25.60
2018-09-03T14:04:13.884Z,26.30
2018-09-03T14:09:09.031Z,26.10
2018-09-03T14:14:06.312Z,26.20
2018-09-03T14:19:01.084Z,26.40
2018-09-03T14:23:55.758Z,26.20
2018-09-03T14:28:50.902Z,26.10
2018-09-03T14:33:45.748Z,25.90
2018-09-03T14:38:43.372Z,25.60
2018-09-03T14:43:38.649Z,25.00
2018-09-03T14:48:41.096Z,24.70
2018-09-03T14:53:44.607Z,24.30
2018-09-03T14:58:40.486Z,24.10
2018-09-03T15:03:36.178Z,23.90
2018-09-03T15:08:34.519Z,23.90
2018-09-03T15:13:29.105Z,24.00
2018-09-03T15:18:23.773Z,24.00
2018-09-03T15:23:18.024Z,24.10
2018-09-03T15:28:14.167Z,24.10
2018-09-03T15:33:09.477Z,24.00
2018-09-03T15:38:05.566Z,23.90
2018-09-03T15:43:00.166Z,24.00
2018-09-03T15:47:55.988Z,24.10
2018-09-03T15:52:51.049Z,24.20
2018-09-03T15:57:53.776Z,24.10
2018-09-03T16:02:49.310Z,24.10
2018-09-03T16:07:44.033Z,24.10
2018-09-03T16:12:39.592Z,24.30
2018-09-03T16:17:34.356Z,24.10
2018-09-03T16:22:37.483Z,24.00
2018-09-03T16:27:32.517Z,23.90
2018-09-03T16:32:27.216Z,23.90
2018-09-03T16:37:37.857Z,23.80
2018-09-03T16:42:33.399Z,23.60
2018-09-03T16:47:28.200Z,23.60
2018-09-03T16:52:24.154Z,23.40
2018-09-03T16:57:18.958Z,23.30
2018-09-03T17:02:13.332Z,23.20
2018-09-03T17:07:09.766Z,23.20
2018-09-03T17:12:06.987Z,23.10
2018-09-03T17:17:05.195Z,23.00
2018-09-03T17:21:59.734Z,22.90
2018-09-03T17:26:54.830Z,22.80
2018-09-03T17:31:50.251Z,22.70
2018-09-03T17:36:45.012Z,22.60
2018-09-03T17:41:40.192Z,22.60
2018-09-03T17:46:37.566Z,22.50
2018-09-03T17:51:32.569Z,22.50
2018-09-03T17:56:27.955Z,22.40
2018-09-03T18:01:22.795Z,22.30
2018-09-03T18:06:21.172Z,22.30
2018-09-03T18:11:15.672Z,22.20
2018-09-03T18:16:11.708Z,22.20
2018-09-03T18:21:08.174Z,22.10
2018-09-03T18:26:07.512Z,22.00
2018-09-03T18:31:03.900Z,22.00
2018-09-03T18:35:59.426Z,21.90
2018-09-03T18:40:54.291Z,21.90
2018-09-03T18:45:59.694Z,21.80
2018-09-03T18:50:56.415Z,21.70
2018-09-03T18:55:50.984Z,21.70
2018-09-03T19:00:46.525Z,21.60
2018-09-03T19:05:40.865Z,21.50
2018-09-03T19:10:36.263Z,21.40
2018-09-03T19:15:30.967Z,21.40
2018-09-03T19:20:27.785Z,21.40
2018-09-03T19:25:22.365Z,21.40
2018-09-03T19:30:17.033Z,21.40
2018-09-03T19:35:11.630Z,21.40
2018-09-03T19:40:06.430Z,21.30
2018-09-03T19:45:02.421Z,21.30
2018-09-03T19:49:57.734Z,21.20
2018-09-03T19:54:55.755Z,21.20
2018-09-03T19:59:53.381Z,21.20
2018-09-03T20:04:54.493Z,21.20
2018-09-03T20:09:49.330Z,21.10
2018-09-03T20:14:52.314Z,21.10
2018-09-03T20:19:49.659Z,21.00
2018-09-03T20:24:45.645Z,20.90
2018-09-03T20:29:40.650Z,20.80
2018-09-03T20:34:35.761Z,20.70
2018-09-03T20:39:31.106Z,20.60
2018-09-03T20:44:25.550Z,20.60
2018-09-03T20:49:20.129Z,20.60
2018-09-03T20:54:14.522Z,20.60
2018-09-03T20:59:09.767Z,20.50
2018-09-03T21:04:05.395Z,20.40
2018-09-03T21:09:01.051Z,20.40
2018-09-03T21:13:55.501Z,20.20
2018-09-03T21:18:50.307Z,20.10
2018-09-03T21:23:44.977Z,19.90
2018-09-03T21:28:40.500Z,19.90
2018-09-03T21:33:35.615Z,19.80
2018-09-03T21:38:31.094Z,19.80
2018-09-03T21:43:25.405Z,19.80
2018-09-03T21:48:19.641Z,19.90
2018-09-03T21:53:14.062Z,19.80
2018-09-03T21:58:08.731Z,19.80
2018-09-03T22:03:19.465Z,19.70
2018-09-03T22:08:29.200Z,19.70
2018-09-03T22:13:25.049Z,19.70
2018-09-03T22:18:26.667Z,19.60
2018-09-03T22:23:28.593Z,19.50
2018-09-03T22:28:24.614Z,19.40
2018-09-03T22:33:20.098Z,19.30
2018-09-03T22:38:15.158Z,19.20
2018-09-03T22:43:09.550Z,19.10
2018-09-03T22:48:12.742Z,19.00
2018-09-03T22:53:16.542Z,18.90
2018-09-03T22:58:19.685Z,18.80
2018-09-03T23:03:14.346Z,18.80
2018-09-03T23:08:08.939Z,18.70
2018-09-03T23:13:04.610Z,18.60
2018-09-03T23:18:00.338Z,18.50
2018-09-03T23:22:55.316Z,18.40
2018-09-03T23:27:50.452Z,18.40
2018-09-03T23:32:44.927Z,18.40
2018-09-03T23:37:39.217Z,18.40
2018-09-03T23:42:34.109Z,18.40
2018-09-03T23:47:29.337Z,18.20
2018-09-03T23:52:23.972Z,18.20
2018-09-03T23:57:18.354Z,18.20
